Time;durP1;ratioP1;P1;durP2;ratioP2;P2;SDS_P1;SDS_P2;PMS_P1;PMS_P2;Temp;Humidity;BMP_temperature;BMP_pressure;BME280_temperature;BME280_humidity;BME280_pressure;Samples;Min_cycle;Max_cycle;Signal;HPM_P1;HPM_P2
2022/07/05 00:01:12;;;;;;;3.97;3.50;;;13.70;99.90;;;;;;6206711;22;20050;-88
2022/07/05 00:03:38;;;;;;;4.25;3.40;;;13.60;99.90;;;;;;6283238;22;20018;-90
2022/07/05 00:06:05;;;;;;;5.75;3.92;;;13.70;99.90;;;;;;6257426;22;20098;-87
2022/07/05 00:08:32;;;;;;;3.63;3.22;;;13.60;99.90;;;;;;6231469;22;20351;-86
2022/07/05 00:10:58;;;;;;;7.30;3.85;;;13.60;99.90;;;;;;6231522;22;20019;-86
2022/07/05 00:13:24;;;;;;;4.88;3.45;;;13.60;99.90;;;;;;6231816;22;20015;-90
2022/07/05 00:15:52;;;;;;;6.32;3.33;;;13.60;99.90;;;;;;6282158;22;20011;-88
2022/07/05 00:18:18;;;;;;;5.18;3.15;;;13.60;99.90;;;;;;6257027;22;20335;-88
2022/07/05 00:20:45;;;;;;;4.25;3.17;;;13.50;99.90;;;;;;6256693;22;20086;-88
2022/07/05 00:23:11;;;;;;;4.90;3.00;;;13.50;99.90;;;;;;6257684;22;20011;-88
2022/07/05 00:25:37;;;;;;;5.20;3.22;;;13.50;99.90;;;;;;6256390;22;20105;-88
2022/07/05 00:28:04;;;;;;;3.97;2.88;;;13.50;99.90;;;;;;6256331;22;20017;-89
2022/07/05 00:30:30;;;;;;;4.22;3.13;;;13.50;99.90;;;;;;6231768;22;20011;-89
2022/07/05 00:32:56;;;;;;;6.00;3.03;;;13.50;99.90;;;;;;6257140;22;20007;-90
2022/07/05 00:35:22;;;;;;;3.45;3.03;;;13.40;99.90;;;;;;6258032;22;20014;-88
2022/07/05 00:37:48;;;;;;;5.20;3.25;;;13.40;99.90;;;;;;6258937;22;20019;-87
2022/07/05 00:40:14;;;;;;;3.63;3.00;;;13.40;99.90;;;;;;6259350;22;20109;-86
2022/07/05 00:42:40;;;;;;;7.43;3.38;;;13.40;99.90;;;;;;6258292;22;20061;-91
2022/07/05 00:45:07;;;;;;;7.32;3.45;;;13.40;99.90;;;;;;6282985;22;20007;-88
2022/07/05 00:47:33;;;;;;;4.78;3.42;;;13.40;99.90;;;;;;6257329;22;20348;-86
2022/07/05 00:49:59;;;;;;;6.97;3.80;;;13.50;99.90;;;;;;6256287;22;20022;-87
2022/07/05 00:52:27;;;;;;;6.78;3.63;;;13.50;99.90;;;;;;6260820;22;20022;-87
2022/07/05 00:54:53;;;;;;;5.40;4.43;;;13.60;99.90;;;;;;6259402;22;20019;-89
2022/07/05 00:57:26;;;;;;;5.20;3.75;;;13.60;99.90;;;;;;6260237;22;20018;-86
2022/07/05 00:59:52;;;;;;;4.43;3.40;;;13.80;99.90;;;;;;6256205;22;20024;-88
2022/07/05 01:02:19;;;;;;;4.95;3.53;;;13.60;99.90;;;;;;6256578;22;20043;-89
2022/07/05 01:04:50;;;;;;;4.50;3.63;;;13.50;99.90;;;;;;6282729;22;20011;-87
2022/07/05 01:07:19;;;;;;;5.00;3.85;;;13.50;99.90;;;;;;6255426;22;20042;-89
2022/07/05 01:09:44;;;;;;;4.13;3.42;;;13.50;99.90;;;;;;6254717;22;20443;-87
2022/07/05 01:12:10;;;;;;;7.38;3.55;;;13.40;99.90;;;;;;6231495;22;20072;-89
2022/07/05 01:14:36;;;;;;;5.28;3.38;;;13.40;99.90;;;;;;6256072;22;20033;-88
2022/07/05 01:17:02;;;;;;;5.82;3.60;;;13.40;99.90;;;;;;6257017;22;20046;-88
2022/07/05 01:19:29;;;;;;;4.28;3.88;;;13.40;99.90;;;;;;6257104;22;20090;-87
2022/07/05 01:21:56;;;;;;;4.38;3.55;;;13.40;99.90;;;;;;6256088;22;20068;-87
2022/07/05 01:24:23;;;;;;;7.53;4.15;;;13.30;99.90;;;;;;6232043;22;20382;-89
2022/07/05 01:26:50;;;;;;;4.47;3.70;;;13.30;99.90;;;;;;6232058;22;20046;-88
2022/07/05 01:29:17;;;;;;;5.10;3.67;;;13.40;99.90;;;;;;6257671;22;20012;-90
2022/07/05 01:31:43;;;;;;;5.80;3.80;;;13.30;99.90;;;;;;6256910;22;20012;-90
2022/07/05 01:34:09;;;;;;;4.18;3.47;;;13.20;99.90;;;;;;6231354;22;20506;-89
2022/07/05 01:36:36;;;;;;;4.75;3.40;;;13.20;99.90;;;;;;6281144;22;20015;-90
2022/07/05 01:39:06;;;;;;;6.47;3.67;;;13.20;99.90;;;;;;6256102;22;20015;-87
2022/07/05 01:41:32;;;;;;;6.05;4.30;;;13.10;99.90;;;;;;6256289;22;20007;-89
2022/07/05 01:43:59;;;;;;;7.60;4.03;;;13.10;99.90;;;;;;6256489;22;20091;-88
2022/07/05 01:46:28;;;;;;;3.63;3.33;;;13.20;99.90;;;;;;6257071;22;20019;-88
2022/07/05 01:48:57;;;;;;;10.02;4.50;;;13.20;99.90;;;;;;6257607;22;20344;-87
2022/07/05 01:51:29;;;;;;;5.55;3.92;;;13.10;99.90;;;;;;6257163;22;20065;-89
2022/07/05 01:53:55;;;;;;;5.43;3.92;;;13.00;99.90;;;;;;6257119;22;20023;-87
2022/07/05 01:56:21;;;;;;;6.90;3.90;;;13.00;99.90;;;;;;6256438;22;20015;-87
2022/07/05 01:58:47;;;;;;;7.95;3.83;;;13.00;99.90;;;;;;6226816;22;20018;-87
2022/07/05 02:01:13;;;;;;;6.93;4.50;;;13.00;99.90;;;;;;6226419;22;20317;-88
2022/07/05 02:03:40;;;;;;;4.90;4.40;;;13.00;99.90;;;;;;6250297;22;20463;-88
2022/07/05 02:06:10;;;;;;;8.82;4.57;;;12.90;99.90;;;;;;6251116;22;20074;-87
2022/07/05 02:08:36;;;;;;;5.45;4.10;;;12.90;99.90;;;;;;6251224;22;20012;-86
2022/07/05 02:11:03;;;;;;;7.20;3.97;;;12.90;99.90;;;;;;6249639;22;20018;-88
2022/07/05 02:13:30;;;;;;;5.15;4.00;;;12.90;99.90;;;;;;6249819;22;20012;-87
2022/07/05 02:15:56;;;;;;;4.53;4.13;;;12.90;99.90;;;;;;6249989;22;20015;-89
2022/07/05 02:18:25;;;;;;;5.05;3.90;;;12.80;99.90;;;;;;6249809;22;20051;-88
2022/07/05 02:20:51;;;;;;;5.25;4.28;;;12.80;99.90;;;;;;6226597;22;20016;-88
2022/07/05 02:23:17;;;;;;;6.55;4.55;;;12.70;99.90;;;;;;6253089;22;20011;-87
2022/07/05 02:25:42;;;;;;;4.70;4.30;;;12.70;99.90;;;;;;6250668;22;20014;-89
2022/07/05 02:28:08;;;;;;;6.78;4.32;;;12.70;99.90;;;;;;6251633;22;20023;-88
2022/07/05 02:30:34;;;;;;;10.70;4.50;;;12.70;99.90;;;;;;6225804;22;20007;-86
2022/07/05 02:32:59;;;;;;;5.30;4.40;;;12.70;99.90;;;;;;6250193;22;20011;-89
2022/07/05 02:35:25;;;;;;;6.35;4.80;;;12.70;99.90;;;;;;6200043;22;20011;-88
2022/07/05 02:37:51;;;;;;;5.90;4.55;;;12.70;99.90;;;;;;6249596;22;20020;-87
2022/07/05 02:40:17;;;;;;;5.95;5.07;;;12.70;99.90;;;;;;6251052;22;20015;-88
2022/07/05 02:42:42;;;;;;;5.50;5.00;;;12.70;99.90;;;;;;6249613;22;20007;-87
2022/07/05 02:45:11;;;;;;;6.60;4.97;;;12.80;99.90;;;;;;6249463;22;20035;-88
2022/07/05 02:47:37;;;;;;;7.30;5.45;;;12.90;99.90;;;;;;6250376;22;20016;-87
2022/07/05 02:50:08;;;;;;;5.78;4.93;;;12.90;99.90;;;;;;6226051;22;20023;-89
2022/07/05 02:52:36;;;;;;;7.70;4.70;;;12.90;99.90;;;;;;6226759;22;20016;-90
2022/07/05 02:55:09;;;;;;;6.15;4.55;;;13.00;99.90;;;;;;6248668;22;20467;-87
2022/07/05 02:57:38;;;;;;;6.35;5.13;;;13.00;99.90;;;;;;6252118;22;20071;-87
2022/07/05 03:00:06;;;;;;;4.47;4.07;;;13.00;99.90;;;;;;6224950;22;20379;-87
2022/07/05 03:02:32;;;;;;;6.13;4.70;;;12.90;99.90;;;;;;6249778;22;20087;-88
2022/07/05 03:04:58;;;;;;;5.78;4.55;;;12.90;99.90;;;;;;6224850;22;20019;-88
2022/07/05 03:07:24;;;;;;;7.35;4.70;;;13.00;99.90;;;;;;6225143;22;20019;-88
2022/07/05 03:09:50;;;;;;;6.28;4.85;;;12.90;99.90;;;;;;6250957;22;20090;-90
2022/07/05 03:12:16;;;;;;;5.05;3.97;;;12.90;99.90;;;;;;6201758;22;20019;-87
2022/07/05 03:14:44;;;;;;;4.47;3.90;;;12.90;99.90;;;;;;6230139;22;20336;-88
2022/07/05 03:17:13;;;;;;;4.97;4.40;;;12.80;99.90;;;;;;6252609;22;20328;-88
2022/07/05 03:19:43;;;;;;;4.97;4.28;;;12.80;99.90;;;;;;6249883;22;20012;-89
2022/07/05 03:22:09;;;;;;;7.07;4.32;;;12.70;99.90;;;;;;6225690;22;20019;-88
2022/07/05 03:24:35;;;;;;;5.53;3.72;;;12.30;99.90;;;;;;6250904;22;20019;-89
2022/07/05 03:27:01;;;;;;;6.20;4.88;;;12.70;99.90;;;;;;6252042;22;20020;-88
2022/07/05 03:29:27;;;;;;;5.53;4.18;;;12.60;99.90;;;;;;6226161;22;20627;-87
2022/07/05 03:31:53;;;;;;;6.65;4.32;;;12.60;99.90;;;;;;6224436;22;20011;-88
2022/07/05 03:34:18;;;;;;;6.55;4.32;;;12.60;99.90;;;;;;6249049;22;20018;-87
2022/07/05 03:36:44;;;;;;;6.30;4.40;;;12.60;99.90;;;;;;6249629;22;20019;-86
2022/07/05 03:39:13;;;;;;;4.75;4.10;;;12.50;99.90;;;;;;6250070;22;20019;-87
2022/07/05 03:41:39;;;;;;;5.78;4.22;;;12.60;99.90;;;;;;6276138;22;20302;-89
2022/07/05 03:44:08;;;;;;;6.20;4.25;;;12.50;99.90;;;;;;6249718;22;20011;-88
2022/07/05 03:46:34;;;;;;;5.05;4.60;;;12.50;99.90;;;;;;6250082;22;20402;-87
2022/07/05 03:49:00;;;;;;;5.65;5.05;;;12.60;99.90;;;;;;6248867;22;20016;-87
2022/07/05 03:51:26;;;;;;;4.90;4.25;;;12.50;99.90;;;;;;6224998;22;20012;-87
2022/07/05 03:53:55;;;;;;;4.95;4.45;;;12.00;99.90;;;;;;6225537;22;20026;-88
2022/07/05 03:56:22;;;;;;;6.40;5.47;;;12.70;99.90;;;;;;6227165;22;20046;-88
2022/07/05 03:58:49;;;;;;;5.88;4.70;;;12.70;99.90;;;;;;6252016;22;20019;-88
2022/07/05 04:01:16;;;;;;;5.47;4.57;;;12.70;99.90;;;;;;6250681;22;20020;-88
2022/07/05 04:03:42;;;;;;;5.55;4.53;;;12.70;99.90;;;;;;6251109;22;20012;-87
2022/07/05 04:06:09;;;;;;;7.25;4.32;;;12.30;99.90;;;;;;6249058;22;20015;-87
2022/07/05 04:08:35;;;;;;;5.97;4.45;;;12.80;99.90;;;;;;6223605;22;20018;-87
2022/07/05 04:11:04;;;;;;;6.63;5.07;;;12.80;99.90;;;;;;6249873;22;20016;-87
2022/07/05 04:13:30;;;;;;;5.55;4.60;;;12.80;99.90;;;;;;6275779;22;20029;-89
2022/07/05 04:15:56;;;;;;;4.95;4.40;;;12.90;99.90;;;;;;6248667;22;20086;-87
2022/07/05 04:18:22;;;;;;;6.30;4.88;;;12.90;99.90;;;;;;6248437;22;20019;-89
2022/07/05 04:20:48;;;;;;;5.15;4.53;;;12.90;99.90;;;;;;6249915;22;20008;-87
2022/07/05 04:23:17;;;;;;;6.18;4.90;;;12.90;99.90;;;;;;6251268;22;20087;-87
2022/07/05 04:25:43;;;;;;;7.15;4.78;;;13.00;99.90;;;;;;6251427;22;20016;-87
2022/07/05 04:28:17;;;;;;;6.57;4.82;;;12.80;99.90;;;;;;6226575;22;20015;-88
2022/07/05 04:30:43;;;;;;;5.03;4.45;;;13.00;99.90;;;;;;6251825;22;20011;-87
2022/07/05 04:33:12;;;;;;;7.68;4.63;;;12.80;99.90;;;;;;6251111;22;20015;-87
2022/07/05 04:35:38;;;;;;;5.55;4.90;;;13.10;99.90;;;;;;6249085;22;20093;-87
2022/07/05 04:38:07;;;;;;;8.00;5.05;;;13.00;99.90;;;;;;6275582;22;20067;-88
2022/07/05 04:40:32;;;;;;;5.68;4.88;;;13.10;99.90;;;;;;6250140;22;20018;-88
2022/07/05 04:43:01;;;;;;;8.75;4.38;;;13.10;99.90;;;;;;6226901;22;20012;-87
2022/07/05 04:45:27;;;;;;;4.57;4.18;;;13.20;99.90;;;;;;6250953;22;20043;-89
2022/07/05 04:47:56;;;;;;;4.82;4.30;;;13.30;99.90;;;;;;6252271;22;20015;-88
2022/07/05 04:50:28;;;;;;;6.18;5.32;;;13.30;99.90;;;;;;6251726;22;20015;-88
2022/07/05 04:52:54;;;;;;;10.35;4.97;;;13.40;99.90;;;;;;6251615;22;20011;-88
2022/07/05 04:55:20;;;;;;;7.53;4.90;;;13.50;99.90;;;;;;6252100;22;20409;-90
2022/07/05 04:57:49;;;;;;;5.53;4.53;;;13.60;99.90;;;;;;6252596;22;20018;-88
2022/07/05 05:00:18;;;;;;;7.38;4.28;;;13.70;99.90;;;;;;6251232;22;20094;-89
2022/07/05 05:02:46;;;;;;;4.70;4.30;;;13.80;99.90;;;;;;6249888;22;20379;-87
2022/07/05 05:05:12;;;;;;;5.38;4.60;;;13.90;99.90;;;;;;6226115;22;20022;-89
2022/07/05 05:07:45;;;;;;;6.40;4.60;;;13.80;99.90;;;;;;6226927;22;20023;-88
2022/07/05 05:10:11;;;;;;;8.00;4.72;;;14.10;99.90;;;;;;6251162;22;20030;-86
2022/07/05 05:12:37;;;;;;;6.72;3.90;;;14.20;99.90;;;;;;6251595;22;20015;-88
2022/07/05 05:15:08;;;;;;;5.57;3.70;;;14.20;99.90;;;;;;6250161;22;20026;-88
2022/07/05 05:17:42;;;;;;;4.05;3.63;;;14.40;99.90;;;;;;6252354;22;20018;-89
2022/07/05 05:20:13;;;;;;;4.73;3.50;;;14.50;99.90;;;;;;6252268;22;20012;-89
2022/07/05 05:22:39;;;;;;;6.72;3.75;;;14.50;99.90;;;;;;6278028;22;20321;-89
2022/07/05 05:25:12;;;;;;;5.63;3.60;;;14.60;99.90;;;;;;6226541;22;20008;-88
2022/07/05 05:27:47;;;;;;;5.28;3.38;;;14.70;99.90;;;;;;6252432;22;20015;-88
2022/07/05 05:30:19;;;;;;;4.68;3.40;;;14.70;99.90;;;;;;6252327;22;20022;-87
2022/07/05 05:32:46;;;;;;;3.22;2.75;;;14.60;99.90;;;;;;6256070;22;20317;-88
2022/07/05 05:35:20;;;;;;;5.78;2.67;;;15.00;99.90;;;;;;6232669;22;20038;-88
2022/07/05 05:37:59;;;;;;;4.10;3.35;;;14.70;99.90;;;;;;6254161;22;20090;-88
2022/07/05 05:40:25;;;;;;;4.10;2.72;;;14.80;99.90;;;;;;6253106;22;20051;-88
2022/07/05 05:42:57;;;;;;;4.13;2.90;;;14.80;99.90;;;;;;6254651;22;20016;-90
2022/07/05 05:45:26;;;;;;;6.18;3.28;;;14.90;99.90;;;;;;6228962;22;20018;-88
2022/07/05 05:47:54;;;;;;;3.90;2.97;;;15.00;99.90;;;;;;6253250;22;20019;-90
2022/07/05 05:50:22;;;;;;;4.60;3.38;;;15.00;99.90;;;;;;6253798;22;20024;-89
2022/07/05 05:52:48;;;;;;;4.40;3.03;;;15.10;99.90;;;;;;6228198;22;20015;-90
2022/07/05 05:55:14;;;;;;;3.22;2.80;;;15.10;99.90;;;;;;6254675;22;20384;-89
2022/07/05 05:57:40;;;;;;;4.60;3.08;;;15.20;99.90;;;;;;6230180;22;20016;-88
2022/07/05 06:00:07;;;;;;;4.72;3.28;;;15.10;99.90;;;;;;6249758;22;20012;-91
2022/07/05 06:02:33;;;;;;;6.82;3.20;;;15.10;99.90;;;;;;6224618;22;20011;-88
2022/07/05 06:04:59;;;;;;;5.05;3.30;;;15.20;99.90;;;;;;6250422;22;20091;-86
2022/07/05 06:07:26;;;;;;;4.82;3.15;;;15.20;99.90;;;;;;6251043;22;20073;-91
2022/07/05 06:09:55;;;;;;;5.97;3.47;;;15.20;99.90;;;;;;6251798;22;20058;-87
2022/07/05 06:12:21;;;;;;;4.38;3.30;;;15.20;99.90;;;;;;6227252;22;20430;-89
2022/07/05 06:14:50;;;;;;;5.47;3.20;;;15.30;99.90;;;;;;6226296;22;20107;-89
2022/07/05 06:17:16;;;;;;;5.25;3.00;;;15.40;99.90;;;;;;6250481;22;20981;-89
2022/07/05 06:19:41;;;;;;;5.53;2.90;;;15.50;99.90;;;;;;6251448;22;20069;-89
2022/07/05 06:22:07;;;;;;;4.05;2.75;;;15.50;99.90;;;;;;6226215;22;20065;-89
2022/07/05 06:24:36;;;;;;;6.88;3.67;;;15.60;99.90;;;;;;6250532;22;20047;-87
2022/07/05 06:27:04;;;;;;;4.43;2.40;;;15.50;99.90;;;;;;6250134;22;20015;-88
2022/07/05 06:29:30;;;;;;;5.35;2.10;;;15.90;99.90;;;;;;6249136;22;20012;-89
2022/07/05 06:32:03;;;;;;;5.78;2.60;;;15.90;99.90;;;;;;6275469;22;20073;-89
2022/07/05 06:34:29;;;;;;;5.88;2.15;;;16.10;99.90;;;;;;6251294;22;20522;-89
2022/07/05 06:36:55;;;;;;;3.70;2.03;;;16.20;99.90;;;;;;6227255;22;20015;-89
2022/07/05 06:39:21;;;;;;;2.92;1.67;;;16.20;99.90;;;;;;6252235;22;20066;-90
2022/07/05 06:41:47;;;;;;;2.60;1.70;;;16.50;99.90;;;;;;6226334;22;20008;-88
2022/07/05 06:44:13;;;;;;;3.83;1.83;;;16.60;99.90;;;;;;6251135;22;20066;-89
2022/07/05 06:46:39;;;;;;;4.20;2.08;;;16.70;99.90;;;;;;6226068;22;20018;-90
2022/07/05 06:49:05;;;;;;;4.18;1.70;;;16.90;99.90;;;;;;6225636;22;20047;-89
2022/07/05 06:51:31;;;;;;;3.03;1.48;;;17.20;99.90;;;;;;6251737;22;20020;-90
2022/07/05 06:53:56;;;;;;;4.55;1.40;;;17.20;99.90;;;;;;6251837;22;20068;-90
2022/07/05 06:56:22;;;;;;;2.00;1.30;;;17.60;99.90;;;;;;6225948;22;20443;-88
2022/07/05 06:58:48;;;;;;;3.35;1.33;;;17.90;99.90;;;;;;6225251;22;20012;-87
2022/07/05 07:01:14;;;;;;;3.95;1.40;;;18.30;99.90;;;;;;6249868;22;20016;-88
2022/07/05 07:03:40;;;;;;;3.88;1.10;;;18.20;99.90;;;;;;6250926;22;20019;-87
2022/07/05 07:06:06;;;;;;;2.20;1.10;;;17.50;99.90;;;;;;6250156;22;20019;-89
2022/07/05 07:11:22;;;;;;;2.20;1.00;;;18.40;99.90;;;;;;6256617;22;20019;-90
2022/07/05 07:13:48;;;;;;;1.67;1.00;;;18.70;99.90;;;;;;6226287;22;20009;-86
2022/07/05 07:16:39;;;;;;;3.45;1.17;;;19.10;99.90;;;;;;6226223;22;20012;-88
2022/07/05 07:19:05;;;;;;;3.20;1.13;;;18.80;99.90;;;;;;6224785;22;20011;-88
2022/07/05 07:21:31;;;;;;;4.65;1.02;;;18.70;99.90;;;;;;6226089;22;20008;-85
2022/07/05 07:23:57;;;;;;;2.92;0.98;;;19.10;99.90;;;;;;6225978;22;20724;-85
2022/07/05 07:26:22;;;;;;;3.15;0.80;;;19.40;99.90;;;;;;6251070;22;20030;-89
2022/07/05 07:28:48;;;;;;;2.50;1.35;;;19.40;99.90;;;;;;6225150;22;20016;-87
2022/07/05 07:31:14;;;;;;;3.95;1.00;;;19.20;99.90;;;;;;6224394;22;20118;-86
2022/07/05 07:33:41;;;;;;;3.67;1.02;;;19.20;99.90;;;;;;6224853;22;20106;-89
2022/07/05 07:36:07;;;;;;;1.33;0.90;;;19.40;99.90;;;;;;6250063;22;20019;-85
2022/07/05 07:38:33;;;;;;;1.77;0.85;;;19.40;99.90;;;;;;6224770;22;20011;-87
2022/07/05 07:41:00;;;;;;;4.40;0.90;;;19.60;99.90;;;;;;6248945;22;20454;-86
2022/07/05 07:43:26;;;;;;;2.92;0.90;;;19.30;99.90;;;;;;6249831;22;20012;-87
2022/07/05 07:45:52;;;;;;;4.38;0.93;;;19.60;99.90;;;;;;6249031;22;20061;-89
2022/07/05 07:48:18;;;;;;;1.52;0.85;;;19.10;99.90;;;;;;6223294;22;20050;-87
2022/07/05 07:50:44;;;;;;;3.78;1.05;;;19.00;99.90;;;;;;6250646;22;20011;-86
2022/07/05 07:53:11;;;;;;;2.60;1.33;;;19.00;99.90;;;;;;6200382;22;20114;-85
2022/07/05 07:55:36;;;;;;;1.65;0.90;;;19.10;99.90;;;;;;6254397;22;20012;-89
2022/07/05 07:58:03;;;;;;;2.10;0.90;;;19.20;99.90;;;;;;6251362;22;20073;-84
2022/07/05 08:00:32;;;;;;;4.60;0.80;;;19.30;99.90;;;;;;6230968;22;20019;-86
2022/07/05 08:02:58;;;;;;;1.83;1.13;;;19.30;99.90;;;;;;6256851;22;20064;-87
2022/07/05 08:05:25;;;;;;;3.13;1.05;;;19.20;99.90;;;;;;6255808;22;20030;-87
2022/07/05 08:07:52;;;;;;;2.85;0.80;;;19.10;99.90;;;;;;6255820;22;20026;-86
2022/07/05 08:10:17;;;;;;;4.07;1.27;;;19.00;99.90;;;;;;6230495;22;20098;-85
2022/07/05 08:12:43;;;;;;;2.03;1.20;;;19.00;99.90;;;;;;6230997;22;20054;-85
2022/07/05 08:15:10;;;;;;;3.53;0.80;;;18.30;99.90;;;;;;6255023;22;20019;-89
2022/07/05 08:17:37;;;;;;;3.33;0.88;;;19.20;99.90;;;;;;6255719;22;20041;-88
2022/07/05 08:22:47;;;;;;;1.00;0.77;;;19.10;99.90;;;;;;6238597;22;20047;-87
2022/07/05 08:25:17;;;;;;;2.20;0.88;;;18.90;99.90;;;;;;6256666;22;20011;-89
2022/07/05 08:27:43;;;;;;;4.05;1.13;;;18.80;99.90;;;;;;6256790;22;20016;-86
2022/07/05 08:30:09;;;;;;;1.85;0.90;;;18.60;99.90;;;;;;6281706;22;20018;-86
2022/07/05 08:32:36;;;;;;;3.40;1.45;;;18.70;99.90;;;;;;6256306;22;20011;-91
2022/07/05 08:35:02;;;;;;;4.68;1.40;;;18.60;99.90;;;;;;6231776;22;20340;-87
2022/07/05 08:37:28;;;;;;;1.23;0.80;;;18.60;99.90;;;;;;6230837;22;20053;-88
2022/07/05 08:39:54;;;;;;;3.97;1.20;;;18.60;99.90;;;;;;6256063;22;20012;-87
2022/07/05 08:42:20;;;;;;;3.03;1.33;;;18.80;99.90;;;;;;6230686;22;20041;-88
2022/07/05 08:44:49;;;;;;;6.13;1.30;;;19.00;99.90;;;;;;6205985;22;20330;-87
2022/07/05 08:47:16;;;;;;;1.67;0.90;;;19.20;99.90;;;;;;6205825;22;20093;-87
2022/07/05 08:49:44;;;;;;;3.80;0.98;;;19.40;99.90;;;;;;6206658;22;20098;-89
2022/07/05 08:52:12;;;;;;;3.38;0.90;;;19.40;99.90;;;;;;6231074;22;20021;-88
2022/07/05 08:54:38;;;;;;;1.67;0.85;;;19.60;99.90;;;;;;6256005;22;20011;-89
2022/07/05 08:57:05;;;;;;;2.83;1.00;;;19.30;99.90;;;;;;6258828;22;20510;-87
2022/07/05 08:59:31;;;;;;;3.90;0.90;;;19.60;99.90;;;;;;6234273;22;20099;-87
2022/07/05 09:01:59;;;;;;;7.00;1.15;;;19.50;99.90;;;;;;6256326;22;20007;-88
2022/07/05 09:04:30;;;;;;;4.07;1.00;;;19.30;99.90;;;;;;6255343;22;20015;-91
2022/07/05 09:07:02;;;;;;;1.98;0.90;;;19.60;99.90;;;;;;6249874;22;20316;-87
2022/07/05 09:09:28;;;;;;;1.30;0.80;;;20.20;99.90;;;;;;6280564;22;20011;-87
2022/07/05 09:11:55;;;;;;;2.05;0.80;;;20.40;99.90;;;;;;6230313;22;20022;-87
2022/07/05 09:14:25;;;;;;;2.88;0.90;;;20.50;99.90;;;;;;6279897;22;20060;-88
2022/07/05 09:16:51;;;;;;;2.22;0.90;;;20.60;99.90;;;;;;6255201;22;20015;-88
2022/07/05 09:19:18;;;;;;;2.40;1.02;;;21.00;99.90;;;;;;6255802;22;20073;-88
2022/07/05 09:21:44;;;;;;;3.40;1.00;;;21.50;99.90;;;;;;6255129;22;20401;-89
2022/07/05 09:24:12;;;;;;;4.53;1.00;;;21.60;99.90;;;;;;6254921;22;20455;-88
2022/07/05 09:26:48;;;;;;;4.10;1.00;;;21.60;99.90;;;;;;6255343;22;20462;-86
2022/07/05 09:29:19;;;;;;;2.38;0.90;;;22.10;99.90;;;;;;6277160;22;20066;-88
2022/07/05 09:31:48;;;;;;;4.97;0.90;;;22.60;99.90;;;;;;6230221;22;20015;-90
2022/07/05 09:34:19;;;;;;;2.03;1.00;;;23.00;99.90;;;;;;6254962;22;20073;-90
2022/07/05 09:36:59;;;;;;;2.17;0.80;;;22.60;99.90;;;;;;6255108;22;20037;-90
2022/07/05 09:39:34;;;;;;;5.13;1.15;;;22.30;99.90;;;;;;6256447;22;20016;-89
2022/07/05 09:42:11;;;;;;;5.40;1.05;;;22.00;99.90;;;;;;6255768;22;20038;-90
2022/07/05 09:44:47;;;;;;;1.73;0.90;;;21.80;99.90;;;;;;6230927;22;20011;-91
2022/07/05 09:47:18;;;;;;;1.55;0.70;;;21.40;99.90;;;;;;6253536;22;20073;-88
2022/07/05 09:49:50;;;;;;;2.97;1.10;;;21.20;99.90;;;;;;6280549;22;20013;-88
2022/07/05 09:52:30;;;;;;;1.60;0.80;;;20.60;99.90;;;;;;6253933;22;20034;-87
2022/07/05 09:55:03;;;;;;;3.22;1.00;;;20.30;99.90;;;;;;6255007;22;20439;-88
2022/07/05 09:57:29;;;;;;;3.87;1.10;;;19.40;99.90;;;;;;6254212;22;20041;-88
2022/07/05 10:00:10;;;;;;;1.40;0.73;;;20.10;99.90;;;;;;6249723;22;20460;-87
2022/07/05 10:02:40;;;;;;;1.77;0.80;;;20.00;99.90;;;;;;6249832;22;20022;-89
2022/07/05 10:05:14;;;;;;;3.28;0.80;;;19.70;99.90;;;;;;6250874;22;20436;-86
2022/07/05 10:07:44;;;;;;;3.70;1.23;;;19.50;99.90;;;;;;6249704;22;20070;-86
2022/07/05 10:10:12;;;;;;;3.40;0.90;;;19.60;99.90;;;;;;6249142;22;20024;-86
2022/07/05 10:12:39;;;;;;;3.70;1.00;;;19.80;99.90;;;;;;6224384;22;20016;-85
2022/07/05 10:15:12;;;;;;;3.45;1.10;;;20.10;99.90;;;;;;6255001;22;20022;-88
2022/07/05 10:17:45;;;;;;;2.20;0.85;;;20.60;99.90;;;;;;6253801;22;20043;-87
2022/07/05 10:20:24;;;;;;;2.88;0.90;;;20.80;99.90;;;;;;6250293;22;20382;-89
2022/07/05 10:22:52;;;;;;;3.60;0.98;;;21.70;99.90;;;;;;6250222;22;20034;-88
2022/07/05 10:25:18;;;;;;;1.45;0.75;;;21.70;99.90;;;;;;6249192;22;20012;-88
2022/07/05 10:27:44;;;;;;;2.28;0.98;;;22.50;99.90;;;;;;6223979;22;20088;-88
2022/07/05 10:30:12;;;;;;;1.95;1.20;;;22.60;99.90;;;;;;6249283;22;20026;-87
2022/07/05 10:32:40;;;;;;;7.07;1.10;;;23.20;99.90;;;;;;6249573;22;20051;-88
2022/07/05 10:35:07;;;;;;;3.20;1.33;;;23.50;99.90;;;;;;6249357;22;20015;-90
2022/07/05 10:37:34;;;;;;;2.33;1.00;;;23.10;99.90;;;;;;6249040;22;20015;-87
2022/07/05 10:40:02;;;;;;;5.13;1.30;;;22.20;99.90;;;;;;6223937;22;20023;-88
2022/07/05 10:42:44;;;;;;;2.63;0.95;;;21.70;99.90;;;;;;6249130;22;20022;-89
2022/07/05 10:45:38;;;;;;;2.60;1.10;;;22.10;99.90;;;;;;6249057;22;20709;-89
2022/07/05 10:48:21;;;;;;;2.85;0.93;;;22.00;99.90;;;;;;6249636;22;20065;-88
2022/07/05 10:51:07;;;;;;;2.13;1.00;;;21.90;99.90;;;;;;6249064;22;20448;-87
2022/07/05 10:53:35;;;;;;;3.17;1.15;;;21.80;99.90;;;;;;6273663;22;20015;-86
2022/07/05 10:56:04;;;;;;;3.42;0.90;;;21.70;99.90;;;;;;6248830;22;20432;-87
2022/07/05 10:58:37;;;;;;;1.35;0.88;;;21.80;99.90;;;;;;6250289;22;20016;-87
2022/07/05 11:01:15;;;;;;;2.95;1.15;;;21.50;99.90;;;;;;6228009;22;20015;-89
2022/07/05 11:03:41;;;;;;;1.25;0.73;;;21.60;99.90;;;;;;6252350;22;20015;-90
2022/07/05 11:06:10;;;;;;;3.03;1.15;;;22.10;99.90;;;;;;6254045;22;20060;-88
2022/07/05 11:09:02;;;;;;;2.15;0.80;;;22.40;99.90;;;;;;6229009;22;20011;-87
2022/07/05 11:11:37;;;;;;;2.58;0.90;;;23.20;99.90;;;;;;6230393;22;20018;-88
2022/07/05 11:14:04;;;;;;;2.72;1.27;;;23.50;99.90;;;;;;6254001;22;20078;-87
2022/07/05 11:16:37;;;;;;;3.28;0.90;;;23.20;99.90;;;;;;6279976;22;20080;-91
2022/07/05 11:19:12;;;;;;;3.88;1.00;;;21.00;99.90;;;;;;6254712;22;20100;-89
2022/07/05 11:21:40;;;;;;;4.80;1.13;;;20.50;99.90;;;;;;6280114;22;20332;-87
2022/07/05 11:24:21;;;;;;;4.53;1.00;;;20.70;99.90;;;;;;6254008;22;20351;-90
2022/07/05 11:26:52;;;;;;;2.80;0.80;;;21.50;99.90;;;;;;6255304;22;20587;-89
2022/07/05 11:29:48;;;;;;;3.15;0.90;;;20.80;99.90;;;;;;6205238;22;20011;-91
2022/07/05 11:32:21;;;;;;;4.18;1.15;;;20.70;99.90;;;;;;6230975;22;20852;-89
2022/07/05 11:34:48;;;;;;;2.47;1.10;;;20.70;99.90;;;;;;6231705;22;20022;-87
2022/07/05 11:37:28;;;;;;;2.75;1.10;;;21.30;99.90;;;;;;6282647;22;20249;-88
2022/07/05 11:40:11;;;;;;;3.70;1.58;;;21.70;99.90;;;;;;6282283;22;20007;-89
2022/07/05 11:42:45;;;;;;;3.70;1.17;;;21.90;99.90;;;;;;6255418;22;20455;-89
2022/07/05 11:45:11;;;;;;;;;;;22.00;99.90;;;;;;6283252;22;20455;-89
2022/07/05 11:47:37;;;;;;;1.85;0.70;;;21.10;99.90;;;;;;6256697;22;19911;-89
2022/07/05 11:50:04;;;;;;;2.90;1.02;;;21.50;99.90;;;;;;6256211;22;20011;-88
2022/07/05 11:52:35;;;;;;;2.63;0.95;;;22.20;99.90;;;;;;6256175;22;20015;-88
2022/07/05 11:55:09;;;;;;;3.75;1.05;;;23.20;99.90;;;;;;6257258;22;20011;-89
2022/07/05 11:57:35;;;;;;;2.10;0.95;;;22.90;99.90;;;;;;6256733;22;20410;-90
2022/07/05 12:00:01;;;;;;;3.53;0.90;;;21.30;99.90;;;;;;6252612;22;20008;-91
2022/07/05 12:02:27;;;;;;;2.63;0.82;;;21.00;99.90;;;;;;6253995;22;20313;-90
2022/07/05 12:04:57;;;;;;;6.05;1.23;;;20.40;99.90;;;;;;6251767;22;20011;-90
2022/07/05 12:07:31;;;;;;;3.30;0.90;;;20.20;99.90;;;;;;6200965;22;20023;-89
2022/07/05 12:12:43;;;;;;;4.30;1.30;;;20.30;99.90;;;;;;6277579;22;20026;-92
2022/07/05 12:15:17;;;;;;;2.22;0.85;;;19.70;99.90;;;;;;6250440;22;20022;-88
2022/07/05 12:17:47;;;;;;;1.85;0.95;;;19.10;99.90;;;;;;6275176;22;20045;-88
2022/07/05 12:20:21;;;;;;;4.93;1.20;;;19.20;99.90;;;;;;6249854;22;20008;-88
2022/07/05 12:22:47;;;;;;;2.50;0.95;;;19.00;99.90;;;;;;6249969;22;20091;-88
2022/07/05 12:25:19;;;;;;;6.68;1.30;;;18.90;99.90;;;;;;6245570;22;20039;-91
2022/07/05 12:27:47;;;;;;;4.18;1.05;;;18.80;99.90;;;;;;6250184;22;20065;-91
2022/07/05 12:30:14;;;;;;;2.60;1.20;;;18.60;99.90;;;;;;6199468;22;20055;-89
2022/07/05 12:32:53;;;;;;;2.90;1.70;;;18.10;99.90;;;;;;6249667;22;20026;-88
2022/07/05 12:35:45;;;;;;;3.72;1.15;;;17.90;99.90;;;;;;6249460;22;20012;-91
2022/07/05 12:38:16;;;;;;;2.33;0.95;;;17.80;99.90;;;;;;6231490;22;20026;-88
2022/07/05 12:40:43;;;;;;;4.30;1.25;;;17.70;99.90;;;;;;6258639;22;20043;-87
2022/07/05 12:43:19;;;;;;;2.92;1.00;;;18.10;99.90;;;;;;6258566;22;20008;-89
2022/07/05 12:46:03;;;;;;;1.75;0.95;;;18.40;99.90;;;;;;6233170;22;20011;-88
2022/07/05 12:48:33;;;;;;;;;;;18.30;99.90;;;;;;6277660;22;20007;-91
2022/07/05 12:50:59;;;;;;;2.17;0.90;;;18.30;99.90;;;;;;6252486;22;20325;-91
2022/07/05 12:59:02;;;;;;;1.25;0.90;;;18.60;99.90;;;;;;6280496;22;20026;-88
2022/07/05 13:01:39;;;;;;;3.47;1.00;;;18.80;99.90;;;;;;6255733;22;20035;-88
2022/07/05 13:04:10;;;;;;;2.53;0.90;;;19.30;99.90;;;;;;6277025;22;20065;-90
2022/07/05 13:06:46;;;;;;;2.78;1.15;;;18.70;99.90;;;;;;6252050;22;20015;-90
2022/07/05 13:09:13;;;;;;;2.25;1.00;;;18.60;99.90;;;;;;6277744;22;20117;-90